ΕΜΥ, Εθνική Μετεωρολογική Υπηρεσία - Δελτία Καιρού, Προγνώσεις

ΑΕΡΟΝΑΥΤΙΛΙΑ

GREEK AIRPORTS CODES

TAF LGKC 071100Z 0712/0721 16010KT 9999 FEW010 SCT020 PROB40 TEMPO 0712/0721 5000 RA SCT010 FEW018TCU BKN020 PROB40 TEMPO 0712/0721 3000 TSRA SCT010 FEW018CB BKN020 BECMG 0719/0721 22008KT=

EUROPEAN AIRPORTS CODES